createdAt,value
2019-01-23T00:00:55.128Z,33.93
2019-01-23T00:03:21.084Z,34.40
2019-01-23T00:05:47.240Z,35.03
2019-01-23T00:08:13.175Z,39.03
2019-01-23T00:10:39.066Z,37.37
2019-01-23T00:13:04.991Z,36.70
2019-01-23T00:15:30.899Z,34.87
2019-01-23T00:17:56.817Z,37.83
2019-01-23T00:20:22.854Z,38.93
2019-01-23T00:22:48.753Z,36.80
2019-01-23T00:25:14.734Z,36.07
2019-01-23T00:27:40.652Z,38.70
2019-01-23T00:30:10.171Z,37.03
2019-01-23T00:32:36.074Z,36.87
2019-01-23T00:35:02.013Z,37.87
2019-01-23T00:37:27.912Z,35.20
2019-01-23T00:39:53.848Z,39.73
2019-01-23T00:42:19.747Z,38.47
2019-01-23T00:44:45.665Z,38.37
2019-01-23T00:47:11.603Z,34.00
2019-01-23T00:49:37.494Z,38.40
2019-01-23T00:52:03.432Z,39.07
2019-01-23T00:54:29.542Z,38.93
2019-01-23T00:56:55.480Z,35.20
2019-01-23T00:59:21.377Z,38.57
2019-01-23T01:01:47.266Z,37.73
2019-01-23T01:04:13.238Z,38.13
2019-01-23T01:06:39.156Z,38.20
2019-01-23T01:09:07.185Z,39.17
2019-01-23T01:11:33.080Z,38.93
2019-01-23T01:13:59.117Z,36.87
2019-01-23T01:16:25.015Z,38.37
2019-01-23T01:18:50.942Z,36.40
2019-01-23T01:21:16.825Z,39.43
2019-01-23T01:23:42.771Z,37.03
2019-01-23T01:26:08.777Z,34.30
2019-01-23T01:28:34.709Z,34.50
2019-01-23T01:31:00.642Z,35.27
2019-01-23T01:33:26.563Z,43.20
2019-01-23T01:35:52.459Z,39.63
2019-01-23T01:38:18.421Z,38.27
2019-01-23T01:40:44.315Z,38.60
2019-01-23T01:43:10.253Z,40.90
2019-01-23T01:45:36.186Z,36.90
2019-01-23T01:48:02.086Z,39.20
2019-01-23T01:50:28.131Z,35.17
2019-01-23T01:52:54.060Z,42.17
2019-01-23T01:55:20.005Z,33.17
2019-01-23T01:57:45.898Z,38.70
2019-01-23T02:00:17.726Z,36.30
2019-01-23T02:02:43.663Z,36.37
2019-01-23T02:05:09.660Z,36.53
2019-01-23T02:07:35.547Z,35.33
2019-01-23T02:10:02.842Z,39.47
2019-01-23T02:12:28.776Z,35.30
2019-01-23T02:14:54.695Z,39.90
2019-01-23T02:17:20.635Z,39.87
2019-01-23T02:19:46.562Z,33.70
2019-01-23T02:22:13.298Z,40.03
2019-01-23T02:24:39.238Z,36.00
2019-01-23T02:27:05.130Z,36.30
2019-01-23T02:29:31.054Z,39.00
2019-01-23T02:31:56.942Z,39.63
2019-01-23T02:34:22.882Z,39.17
2019-01-23T02:36:48.780Z,36.37
2019-01-23T02:39:14.702Z,40.90
2019-01-23T02:41:40.588Z,34.40
2019-01-23T02:44:06.485Z,37.10
2019-01-23T02:46:32.451Z,40.00
2019-01-23T02:48:58.439Z,34.50
2019-01-23T02:51:24.388Z,37.93
2019-01-23T02:53:50.278Z,35.40
2019-01-23T02:56:16.216Z,38.40
2019-01-23T02:58:42.115Z,38.27
2019-01-23T03:01:08.065Z,39.30
2019-01-23T03:03:33.951Z,40.53
2019-01-23T03:05:59.925Z,35.40
2019-01-23T03:08:25.819Z,38.90
2019-01-23T03:10:51.747Z,40.50
2019-01-23T03:13:17.679Z,41.80
2019-01-23T03:15:45.887Z,38.97
2019-01-23T03:18:11.923Z,42.17
2019-01-23T03:20:37.849Z,39.40
2019-01-23T03:23:03.781Z,39.37
2019-01-23T03:25:29.715Z,41.60
2019-01-23T03:27:55.680Z,42.03
2019-01-23T03:30:21.578Z,46.83
2019-01-23T03:32:47.511Z,45.30
2019-01-23T03:35:13.616Z,39.53
2019-01-23T03:37:39.546Z,43.30
2019-01-23T03:40:09.092Z,39.77
2019-01-23T03:42:34.995Z,41.17
2019-01-23T03:45:00.914Z,41.83
2019-01-23T03:47:26.841Z,40.17
2019-01-23T03:49:52.713Z,41.53
2019-01-23T03:52:18.661Z,41.93
2019-01-23T03:54:44.546Z,43.90
2019-01-23T03:57:10.438Z,38.50
2019-01-23T03:59:36.379Z,38.30
2019-01-23T04:02:02.290Z,40.67
2019-01-23T04:04:28.274Z,43.83
2019-01-23T04:06:54.160Z,36.90
2019-01-23T04:09:20.268Z,34.23
2019-01-23T04:11:46.135Z,43.23
2019-01-23T04:14:12.048Z,40.87
2019-01-23T04:16:37.930Z,41.23
2019-01-23T04:19:03.828Z,42.13
2019-01-23T04:21:29.709Z,43.30
2019-01-23T04:23:55.622Z,38.57
2019-01-23T04:26:21.585Z,44.40
2019-01-23T04:28:47.493Z,41.97
2019-01-23T04:31:13.422Z,44.20
2019-01-23T04:33:39.286Z,41.73
2019-01-23T04:36:05.192Z,46.43
2019-01-23T04:38:31.056Z,43.43
2019-01-23T04:40:56.976Z,44.57
2019-01-23T04:43:22.864Z,42.33
2019-01-23T04:45:48.777Z,42.57
2019-01-23T04:48:14.642Z,43.70
2019-01-23T04:51:00.731Z,44.00
2019-01-23T04:53:28.517Z,40.63
2019-01-23T04:55:54.391Z,42.50
2019-01-23T04:58:20.298Z,41.87
2019-01-23T05:00:46.333Z,42.67
2019-01-23T05:03:12.235Z,42.43
2019-01-23T05:05:38.143Z,44.30
2019-01-23T05:08:04.055Z,43.37
2019-01-23T05:10:29.948Z,43.83
2019-01-23T05:12:55.859Z,43.10
2019-01-23T05:15:21.744Z,41.47
2019-01-23T05:17:47.627Z,40.60
2019-01-23T05:20:14.849Z,43.00
2019-01-23T05:22:40.707Z,42.83
2019-01-23T05:25:06.702Z,37.77
2019-01-23T05:27:32.591Z,41.77
2019-01-23T05:29:58.502Z,38.13
2019-01-23T05:32:24.380Z,40.23
2019-01-23T05:34:50.296Z,37.30
2019-01-23T05:37:16.272Z,39.87
2019-01-23T05:39:42.192Z,43.60
2019-01-23T05:42:08.100Z,40.57
2019-01-23T05:44:33.976Z,42.47
2019-01-23T05:46:59.900Z,41.07
2019-01-23T05:49:25.917Z,40.57
2019-01-23T05:51:51.799Z,44.07
2019-01-23T05:54:17.708Z,45.20
2019-01-23T05:56:43.608Z,43.23
2019-01-23T05:59:09.481Z,46.43
2019-01-23T06:01:35.401Z,43.70
2019-01-23T06:04:01.267Z,44.93
2019-01-23T06:06:27.218Z,42.67
2019-01-23T06:08:53.108Z,43.97
2019-01-23T06:11:18.980Z,44.63
2019-01-23T06:13:44.903Z,43.20
2019-01-23T06:16:10.827Z,37.93
2019-01-23T06:18:36.715Z,40.33
2019-01-23T06:21:02.615Z,41.97
2019-01-23T06:23:28.521Z,42.63
2019-01-23T06:25:54.457Z,43.83
2019-01-23T06:28:20.403Z,43.33
2019-01-23T06:30:46.287Z,36.80
2019-01-23T06:33:12.202Z,45.90
2019-01-23T06:35:38.088Z,42.10
2019-01-23T06:38:03.973Z,37.60
2019-01-23T06:40:29.877Z,46.03
2019-01-23T06:42:55.752Z,44.73
2019-01-23T06:45:21.757Z,42.63
2019-01-23T06:47:47.980Z,40.77
2019-01-23T06:50:18.460Z,39.17
2019-01-23T06:52:44.367Z,42.33
2019-01-23T06:55:10.243Z,43.57
2019-01-23T06:57:36.154Z,41.63
2019-01-23T07:00:05.243Z,39.73
2019-01-23T07:02:31.162Z,44.93
2019-01-23T07:04:57.060Z,43.63
2019-01-23T07:07:22.974Z,46.00
2019-01-23T07:09:48.834Z,40.47
2019-01-23T07:12:14.740Z,40.27
2019-01-23T07:14:40.620Z,43.40
2019-01-23T07:17:06.518Z,39.63
2019-01-23T07:19:32.396Z,43.33
2019-01-23T07:21:58.331Z,45.10
2019-01-23T07:24:24.208Z,43.60
2019-01-23T07:26:50.120Z,40.87
2019-01-23T07:29:16.066Z,43.20
2019-01-23T07:31:41.982Z,39.73
2019-01-23T07:34:07.850Z,45.23
2019-01-23T07:36:33.868Z,44.83
2019-01-23T07:38:59.743Z,48.30
2019-01-23T07:41:25.643Z,46.37
2019-01-23T07:43:51.525Z,46.80
2019-01-23T07:46:17.439Z,47.20
2019-01-23T07:48:43.356Z,42.10
2019-01-23T07:51:09.281Z,48.00
2019-01-23T07:53:35.164Z,45.17
2019-01-23T07:56:01.035Z,41.10
2019-01-23T07:58:26.938Z,44.57
2019-01-23T08:00:52.894Z,44.77
2019-01-23T08:03:18.925Z,44.07
2019-01-23T08:05:44.829Z,42.87
2019-01-23T08:08:10.682Z,45.53
2019-01-23T08:10:36.602Z,42.97
2019-01-23T08:13:02.602Z,50.20
2019-01-23T08:15:30.612Z,47.57
2019-01-23T08:17:56.477Z,45.37
2019-01-23T08:20:24.389Z,42.67
2019-01-23T08:22:50.252Z,47.03
2019-01-23T08:25:16.192Z,46.27
2019-01-23T08:27:42.547Z,44.33
2019-01-23T08:30:11.398Z,45.63
2019-01-23T08:32:37.397Z,42.40
2019-01-23T08:35:05.082Z,44.97
2019-01-23T08:37:30.989Z,46.20
2019-01-23T08:39:56.870Z,42.93
2019-01-23T08:42:22.780Z,43.47
2019-01-23T08:44:48.644Z,41.67
2019-01-23T08:47:14.572Z,44.60
2019-01-23T08:49:40.442Z,44.37
2019-01-23T08:52:06.322Z,46.63
2019-01-23T08:54:32.267Z,42.57
2019-01-23T08:56:58.133Z,45.37
2019-01-23T08:59:24.042Z,40.40
2019-01-23T09:01:49.897Z,45.20
2019-01-23T09:04:15.810Z,44.00
2019-01-23T09:06:41.729Z,42.97
2019-01-23T09:09:07.655Z,43.70
2019-01-23T09:11:33.533Z,43.37
2019-01-23T09:13:59.432Z,39.67
2019-01-23T09:16:25.304Z,44.10
2019-01-23T09:18:51.221Z,43.73
2019-01-23T09:21:17.104Z,44.67
2019-01-23T09:23:42.979Z,44.57
2019-01-23T09:26:08.889Z,42.30
2019-01-23T09:28:34.833Z,43.47
2019-01-23T09:31:07.282Z,44.30
2019-01-23T09:33:51.636Z,42.03
2019-01-23T09:36:26.869Z,46.57
2019-01-23T09:39:14.764Z,46.90
2019-01-23T09:41:53.787Z,43.80
2019-01-23T09:44:57.417Z,44.27
2019-01-23T09:47:42.463Z,38.93
2019-01-23T09:50:24.091Z,41.80
2019-01-23T09:52:56.514Z,45.80
2019-01-23T09:55:22.533Z,40.70
2019-01-23T09:57:49.357Z,44.73
2019-01-23T10:00:21.445Z,47.70
2019-01-23T10:02:47.384Z,45.67
2019-01-23T10:05:13.438Z,43.67
2019-01-23T10:07:39.312Z,44.53
2019-01-23T10:10:09.076Z,44.03
2019-01-23T10:12:34.954Z,46.63
2019-01-23T10:15:00.845Z,41.63
2019-01-23T10:17:26.747Z,37.87
2019-01-23T10:19:52.746Z,36.87
2019-01-23T10:22:18.636Z,43.13
2019-01-23T10:24:44.535Z,44.77
2019-01-23T10:27:10.433Z,44.23
2019-01-23T10:29:36.343Z,41.63
2019-01-23T10:32:02.244Z,42.97
2019-01-23T10:34:28.120Z,45.20
2019-01-23T10:36:54.028Z,43.47
2019-01-23T10:39:19.889Z,41.77
2019-01-23T10:41:45.797Z,43.77
2019-01-23T10:44:11.719Z,44.73
2019-01-23T10:46:37.586Z,42.87
2019-01-23T10:49:03.497Z,48.37
2019-01-23T10:51:29.377Z,45.60
2019-01-23T10:53:55.289Z,45.20
2019-01-23T10:56:21.173Z,49.73
2019-01-23T10:58:47.070Z,46.67
2019-01-23T11:01:13.468Z,50.73
2019-01-23T11:03:39.455Z,47.53
2019-01-23T11:06:05.341Z,53.07
2019-01-23T11:08:31.313Z,56.90
2019-01-23T11:10:57.217Z,54.67
2019-01-23T11:13:23.740Z,54.77
2019-01-23T11:15:49.624Z,49.17
2019-01-23T11:18:15.743Z,54.73
2019-01-23T11:20:41.633Z,55.43
2019-01-23T11:23:07.546Z,54.97
2019-01-23T11:25:33.418Z,52.97
2019-01-23T11:27:59.510Z,53.27
2019-01-23T11:30:25.703Z,58.60
2019-01-23T11:32:51.729Z,54.27
2019-01-23T11:35:17.611Z,55.27
2019-01-23T11:37:43.490Z,58.50
2019-01-23T11:40:27.405Z,59.83
2019-01-23T11:42:53.268Z,63.27
2019-01-23T11:45:19.192Z,61.63
2019-01-23T11:47:45.080Z,61.97
2019-01-23T11:50:13.912Z,63.07
2019-01-23T11:52:39.801Z,65.57
2019-01-23T11:55:07.532Z,70.60
2019-01-23T11:57:33.396Z,65.57
2019-01-23T11:59:59.298Z,61.57
2019-01-23T12:02:30.744Z,63.30
2019-01-23T12:04:53.076Z,62.67
2019-01-23T12:07:19.017Z,63.40
2019-01-23T12:09:44.987Z,60.70
2019-01-23T12:12:10.949Z,62.07
2019-01-23T12:14:36.844Z,60.00
2019-01-23T12:17:02.742Z,62.70
2019-01-23T12:19:28.625Z,62.87
2019-01-23T12:21:54.546Z,65.87
2019-01-23T12:24:20.537Z,68.23
2019-01-23T12:26:46.460Z,89.13
2019-01-23T12:29:12.483Z,78.03
2019-01-23T12:31:38.401Z,72.60
2019-01-23T12:34:04.265Z,65.80
2019-01-23T12:36:30.161Z,71.80
2019-01-23T12:38:56.175Z,66.20
2019-01-23T12:41:22.077Z,65.30
2019-01-23T12:43:47.999Z,72.60
2019-01-23T12:46:13.859Z,66.33
2019-01-23T12:48:39.791Z,74.60
2019-01-23T12:51:05.655Z,70.13
2019-01-23T12:53:31.624Z,74.27
2019-01-23T12:55:57.536Z,79.00
2019-01-23T12:58:23.421Z,84.33
2019-01-23T13:00:49.360Z,72.73
2019-01-23T13:03:15.300Z,73.20
2019-01-23T13:05:41.180Z,83.20
2019-01-23T13:08:07.133Z,73.03
2019-01-23T13:10:33.005Z,76.57
2019-01-23T13:12:58.889Z,76.43
2019-01-23T13:15:26.220Z,79.17
2019-01-23T13:17:52.502Z,72.67
2019-01-23T13:20:20.522Z,70.53
2019-01-23T13:22:46.422Z,73.80
2019-01-23T13:25:18.596Z,75.60
2019-01-23T13:27:44.534Z,81.07
2019-01-23T13:30:13.441Z,75.70
2019-01-23T13:32:39.327Z,74.27
2019-01-23T13:35:09.055Z,81.93
2019-01-23T13:37:35.025Z,71.97
2019-01-23T13:40:01.002Z,89.00
2019-01-23T13:42:26.876Z,87.70
2019-01-23T13:44:52.795Z,85.50
2019-01-23T13:47:18.677Z,89.23
2019-01-23T13:49:44.685Z,86.90
2019-01-23T13:52:10.556Z,79.77
2019-01-23T13:54:36.461Z,84.17
2019-01-23T13:57:02.695Z,88.40
2019-01-23T13:59:28.632Z,81.07
2019-01-23T14:01:56.366Z,85.03
2019-01-23T14:04:22.337Z,82.90
2019-01-23T14:06:48.289Z,79.60
2019-01-23T14:09:14.253Z,112.70
2019-01-23T14:11:40.161Z,81.70
2019-01-23T14:14:06.103Z,95.13
2019-01-23T14:16:32.024Z,78.73
2019-01-23T14:18:57.897Z,79.33
2019-01-23T14:21:23.812Z,67.13
2019-01-23T14:23:49.713Z,74.53
2019-01-23T14:26:15.605Z,75.57
2019-01-23T14:28:41.527Z,65.13
2019-01-23T14:31:07.396Z,69.20
2019-01-23T14:33:33.303Z,66.70
2019-01-23T14:35:59.208Z,72.57
2019-01-23T14:38:25.114Z,72.13
2019-01-23T14:40:51.024Z,73.23
2019-01-23T14:43:16.956Z,72.93
2019-01-23T14:45:42.827Z,73.67
2019-01-23T14:48:08.696Z,84.57
2019-01-23T14:50:34.626Z,74.53
2019-01-23T14:53:00.505Z,69.83
2019-01-23T14:55:26.540Z,74.23
2019-01-23T14:57:52.536Z,73.90
2019-01-23T15:00:24.092Z,76.67
2019-01-23T15:02:50.038Z,78.30
2019-01-23T15:05:16.059Z,71.83
2019-01-23T15:07:42.054Z,74.97
2019-01-23T15:10:20.158Z,114.87
2019-01-23T15:12:46.106Z,84.30
2019-01-23T15:15:12.586Z,71.57
2019-01-23T15:17:39.528Z,79.00
2019-01-23T15:20:20.512Z,79.27
2019-01-23T15:22:46.395Z,92.43
2019-01-23T15:25:12.397Z,83.87
2019-01-23T15:27:38.393Z,81.87
2019-01-23T15:30:07.397Z,75.07
2019-01-23T15:32:33.491Z,76.03
2019-01-23T15:34:59.476Z,75.43
2019-01-23T15:37:25.517Z,72.67
2019-01-23T15:39:51.485Z,68.67
2019-01-23T15:42:17.511Z,67.70
2019-01-23T15:44:43.399Z,69.83
2019-01-23T15:47:09.414Z,70.20
2019-01-23T15:49:35.301Z,71.43
2019-01-23T15:52:01.342Z,73.47
2019-01-23T15:54:27.232Z,72.33
2019-01-23T15:56:53.218Z,68.30
2019-01-23T15:59:19.132Z,68.80
2019-01-23T16:01:45.006Z,63.97
2019-01-23T16:04:10.912Z,74.67
2019-01-23T16:06:36.800Z,72.13
2019-01-23T16:09:04.594Z,64.70
2019-01-23T16:11:30.459Z,69.80
2019-01-23T16:13:56.343Z,68.50
2019-01-23T16:16:22.344Z,68.40
2019-01-23T16:18:48.241Z,70.00
2019-01-23T16:21:14.150Z,70.37
2019-01-23T16:23:40.203Z,65.53
2019-01-23T16:26:06.267Z,68.03
2019-01-23T16:28:32.246Z,77.17
2019-01-23T16:30:58.166Z,64.13
2019-01-23T16:33:24.074Z,75.60
2019-01-23T16:35:49.940Z,78.33
2019-01-23T16:38:15.864Z,72.47
2019-01-23T16:40:41.735Z,71.50
2019-01-23T16:43:07.645Z,80.13
2019-01-23T16:45:33.527Z,74.27
2019-01-23T16:47:59.423Z,75.20
2019-01-23T16:50:26.999Z,77.27
2019-01-23T16:52:53.931Z,91.97
2019-01-23T16:55:20.024Z,84.63
2019-01-23T16:57:46.481Z,86.70
2019-01-23T17:00:15.453Z,89.63
2019-01-23T17:02:41.395Z,84.60
2019-01-23T17:05:13.913Z,90.70
2019-01-23T17:07:39.817Z,79.27
2019-01-23T17:10:09.545Z,80.17
2019-01-23T17:12:35.535Z,90.87
2019-01-23T17:15:01.446Z,80.70
2019-01-23T17:17:27.421Z,87.03
2019-01-23T17:19:53.371Z,88.97
2019-01-23T17:22:19.291Z,90.80
2019-01-23T17:24:45.227Z,91.07
2019-01-23T17:27:11.130Z,97.00
2019-01-23T17:29:37.092Z,89.17
2019-01-23T17:32:02.986Z,99.07
2019-01-23T17:34:28.886Z,85.73
2019-01-23T17:36:54.816Z,91.70
2019-01-23T17:39:21.352Z,84.33
2019-01-23T17:41:47.304Z,89.87
2019-01-23T17:44:13.383Z,99.83
2019-01-23T17:46:40.021Z,89.37
2019-01-23T17:49:05.891Z,100.17
2019-01-23T17:51:31.830Z,97.20
2019-01-23T17:53:57.714Z,95.73
2019-01-23T17:56:23.672Z,98.37
2019-01-23T17:58:49.572Z,106.57
2019-01-23T18:01:15.583Z,103.43
2019-01-23T18:03:41.472Z,108.00
2019-01-23T18:06:07.382Z,103.83
2019-01-23T18:08:33.339Z,100.60
2019-01-23T18:10:59.216Z,98.87
2019-01-23T18:13:25.176Z,102.43
2019-01-23T18:15:51.159Z,101.30
2019-01-23T18:18:17.076Z,107.97
2019-01-23T18:20:43.068Z,103.90
2019-01-23T18:23:09.007Z,110.63
2019-01-23T18:25:34.870Z,101.07
2019-01-23T18:28:00.795Z,108.37
2019-01-23T18:30:36.471Z,104.73
2019-01-23T18:33:05.546Z,179.90
2019-01-23T18:35:50.609Z,132.57
2019-01-23T18:38:26.199Z,125.47
2019-01-23T18:41:24.972Z,142.13
2019-01-23T18:44:26.667Z,164.10
2019-01-23T18:46:56.483Z,126.33
2019-01-23T18:49:50.444Z,120.43
2019-01-23T18:52:16.351Z,122.83
2019-01-23T18:54:43.046Z,128.63
2019-01-23T18:57:15.590Z,122.30
2019-01-23T18:59:41.496Z,125.57
2019-01-23T19:02:07.368Z,136.53
2019-01-23T19:04:33.276Z,133.23
2019-01-23T19:06:59.188Z,130.43
2019-01-23T19:09:25.238Z,138.33
2019-01-23T19:11:51.246Z,129.07
2019-01-23T19:14:17.152Z,148.80
2019-01-23T19:16:43.037Z,143.50
2019-01-23T19:19:08.967Z,137.63
2019-01-23T19:21:34.841Z,134.43
2019-01-23T19:24:00.769Z,144.97
2019-01-23T19:26:26.674Z,134.73
2019-01-23T19:28:52.629Z,138.47
2019-01-23T19:31:18.582Z,143.93
2019-01-23T19:33:44.502Z,140.93
2019-01-23T19:36:10.395Z,151.37
2019-01-23T19:38:36.302Z,140.17
2019-01-23T19:41:02.204Z,146.40
2019-01-23T19:43:28.144Z,131.33
2019-01-23T19:45:54.023Z,147.97
2019-01-23T19:48:19.983Z,140.93
2019-01-23T19:50:46.071Z,142.37
2019-01-23T19:53:11.955Z,140.10
2019-01-23T19:55:37.876Z,151.00
2019-01-23T19:58:04.603Z,143.13
2019-01-23T20:00:30.675Z,135.77
2019-01-23T20:02:56.651Z,149.57
2019-01-23T20:05:23.803Z,142.93
2019-01-23T20:07:49.674Z,151.57
2019-01-23T20:10:18.232Z,152.87
2019-01-23T20:12:44.126Z,142.37
2019-01-23T20:15:12.855Z,162.27
2019-01-23T20:17:38.742Z,130.63
2019-01-23T20:20:08.378Z,152.27
2019-01-23T20:22:34.254Z,149.93
2019-01-23T20:25:00.247Z,148.10
2019-01-23T20:27:26.123Z,141.70
2019-01-23T20:29:52.102Z,170.00
2019-01-23T20:32:18.038Z,155.63
2019-01-23T20:34:43.948Z,155.13
2019-01-23T20:37:09.820Z,140.00
2019-01-23T20:39:35.737Z,147.97
2019-01-23T20:42:01.627Z,165.77
2019-01-23T20:44:27.587Z,158.07
2019-01-23T20:46:53.456Z,152.70
2019-01-23T20:49:19.373Z,154.37
2019-01-23T20:51:45.235Z,146.70
2019-01-23T20:54:11.148Z,148.47
2019-01-23T20:56:37.026Z,149.47
2019-01-23T20:59:02.931Z,154.63
2019-01-23T21:01:28.806Z,156.13
2019-01-23T21:03:54.717Z,153.57
2019-01-23T21:06:20.629Z,163.07
2019-01-23T21:08:46.530Z,163.97
2019-01-23T21:11:12.440Z,175.73
2019-01-23T21:13:38.303Z,145.77
2019-01-23T21:16:04.246Z,145.03
2019-01-23T21:18:30.111Z,157.53
2019-01-23T21:20:56.039Z,154.57
2019-01-23T21:23:21.924Z,146.20
2019-01-23T21:25:47.845Z,151.80
2019-01-23T21:28:13.733Z,143.50
2019-01-23T21:30:39.709Z,145.83
2019-01-23T21:33:05.613Z,151.43
2019-01-23T21:35:31.531Z,146.80
2019-01-23T21:37:57.469Z,152.17
2019-01-23T21:40:26.154Z,139.63
2019-01-23T21:42:52.071Z,144.63
2019-01-23T21:45:17.977Z,141.80
2019-01-23T21:47:46.219Z,131.03
2019-01-23T21:50:14.692Z,145.87
2019-01-23T21:52:40.568Z,142.57
2019-01-23T21:55:08.975Z,143.63
2019-01-23T21:57:34.835Z,130.93
2019-01-23T22:00:00.742Z,129.37
2019-01-23T22:02:26.610Z,131.53
2019-01-23T22:04:52.534Z,141.40
2019-01-23T22:07:18.410Z,125.20
2019-01-23T22:09:44.314Z,122.37
2019-01-23T22:12:10.218Z,115.03
2019-01-23T22:14:36.122Z,126.40
2019-01-23T22:17:01.999Z,104.03
2019-01-23T22:19:27.928Z,97.90
2019-01-23T22:21:53.791Z,99.00
2019-01-23T22:24:19.680Z,99.70
2019-01-23T22:26:45.569Z,112.97
2019-01-23T22:29:11.434Z,93.63
2019-01-23T22:31:37.383Z,86.57
2019-01-23T22:34:03.366Z,86.57
2019-01-23T22:36:29.277Z,88.60
2019-01-23T22:38:55.142Z,76.57
2019-01-23T22:41:21.066Z,83.93
2019-01-23T22:43:47.255Z,84.80
2019-01-23T22:46:13.137Z,70.30
2019-01-23T22:48:39.045Z,70.40
2019-01-23T22:51:04.945Z,65.53
2019-01-23T22:53:30.967Z,69.03
2019-01-23T22:55:56.891Z,71.10
2019-01-23T22:58:22.801Z,60.87
2019-01-23T23:00:52.793Z,65.73
2019-01-23T23:03:18.657Z,62.07
2019-01-23T23:05:44.576Z,57.70
2019-01-23T23:08:10.571Z,59.97
2019-01-23T23:10:36.522Z,57.03
2019-01-23T23:13:02.394Z,63.23
2019-01-23T23:15:28.293Z,58.03
2019-01-23T23:17:54.209Z,62.60
2019-01-23T23:20:20.082Z,58.97
2019-01-23T23:22:45.993Z,57.57
2019-01-23T23:25:11.909Z,57.13
2019-01-23T23:27:39.532Z,57.93
2019-01-23T23:30:20.640Z,49.00
2019-01-23T23:32:46.598Z,56.50
2019-01-23T23:35:12.508Z,49.17
2019-01-23T23:37:38.416Z,55.13
2019-01-23T23:40:07.998Z,51.97
2019-01-23T23:42:33.914Z,55.73
2019-01-23T23:47:25.647Z,59.53
2019-01-23T23:49:51.556Z,60.20
2019-01-23T23:52:17.458Z,54.47
2019-01-23T23:54:43.322Z,52.90
2019-01-23T23:57:09.237Z,58.93
2019-01-23T23:59:35.105Z,53.50
